createdAt,value
2023-03-14T00:00:27.730Z,0.84
2023-03-14T00:01:27.712Z,0.82
2023-03-14T00:02:27.831Z,0.83
2023-03-14T00:03:27.703Z,0.84
2023-03-14T00:04:27.711Z,0.84
2023-03-14T00:05:26.715Z,0.84
2023-03-14T00:06:27.735Z,0.81
2023-03-14T00:07:27.716Z,0.84
2023-03-14T00:08:27.728Z,0.83
2023-03-14T00:09:27.745Z,0.82
2023-03-14T00:10:27.742Z,0.83
2023-03-14T00:11:27.731Z,0.82
2023-03-14T00:12:27.739Z,0.82
2023-03-14T00:13:27.749Z,0.82
2023-03-14T00:14:27.777Z,0.83
2023-03-14T00:15:27.783Z,0.83
2023-03-14T00:16:27.847Z,0.86
2023-03-14T00:17:26.784Z,0.87
2023-03-14T00:18:27.807Z,0.87
2023-03-14T00:19:27.813Z,0.86
2023-03-14T00:20:27.845Z,0.85
2023-03-14T00:21:27.813Z,0.86
2023-03-14T00:22:27.833Z,0.86
2023-03-14T00:23:27.833Z,0.86
2023-03-14T00:24:27.853Z,0.86
2023-03-14T00:25:27.840Z,0.83
2023-03-14T00:26:26.829Z,0.82
2023-03-14T00:27:26.844Z,0.82
2023-03-14T00:28:27.855Z,0.81
2023-03-14T00:29:27.885Z,0.84
2023-03-14T00:30:27.864Z,0.86
2023-03-14T00:31:27.938Z,0.84
2023-03-14T00:32:26.959Z,0.82
2023-03-14T00:33:27.902Z,0.83
2023-03-14T00:34:27.928Z,0.82
2023-03-14T00:35:26.914Z,0.82
2023-03-14T00:36:27.926Z,0.81
2023-03-14T00:37:27.939Z,0.84
2023-03-14T00:38:26.964Z,0.81
2023-03-14T00:39:27.997Z,0.84
2023-03-14T00:40:26.983Z,0.86
2023-03-14T00:41:28.003Z,0.84
2023-03-14T00:42:27.011Z,0.83
2023-03-14T00:43:27.017Z,0.81
2023-03-14T00:44:28.056Z,0.82
2023-03-14T00:45:27.047Z,0.80
2023-03-14T00:46:28.173Z,0.81
2023-03-14T00:47:28.068Z,0.81
2023-03-14T00:48:28.105Z,0.82
2023-03-14T00:49:27.094Z,0.83
2023-03-14T00:50:27.099Z,0.83
2023-03-14T00:51:28.099Z,0.81
2023-03-14T00:52:28.113Z,0.81
2023-03-14T00:53:27.113Z,0.79
2023-03-14T00:54:28.140Z,0.80
2023-03-14T00:55:28.142Z,0.79
2023-03-14T00:56:28.144Z,0.79
2023-03-14T00:57:28.165Z,0.80
2023-03-14T00:58:28.168Z,0.81
2023-03-14T00:59:28.207Z,0.80
2023-03-14T01:00:28.180Z,0.79
2023-03-14T01:01:28.320Z,0.79
2023-03-14T01:02:27.291Z,0.78
2023-03-14T01:03:28.211Z,0.79
2023-03-14T01:04:27.239Z,0.79
2023-03-14T01:05:28.248Z,0.79
2023-03-14T01:06:27.279Z,0.78
2023-03-14T01:07:28.265Z,0.78
2023-03-14T01:08:28.291Z,0.79
2023-03-14T01:09:28.305Z,0.78
2023-03-14T01:10:28.337Z,0.77
2023-03-14T01:11:27.346Z,0.76
2023-03-14T01:12:28.366Z,0.76
2023-03-14T01:13:28.380Z,0.76
2023-03-14T01:14:28.404Z,0.78
2023-03-14T01:15:28.429Z,0.77
2023-03-14T01:16:28.438Z,0.76
2023-03-14T01:17:28.468Z,0.75
2023-03-14T01:18:28.477Z,0.76
2023-03-14T01:19:27.546Z,0.78
2023-03-14T01:20:28.532Z,0.76
2023-03-14T01:21:28.538Z,0.75
2023-03-14T01:22:27.541Z,0.76
2023-03-14T01:23:28.567Z,0.76
2023-03-14T01:24:28.573Z,0.76
2023-03-14T01:25:28.582Z,0.76
2023-03-14T01:26:27.659Z,0.75
2023-03-14T01:27:28.588Z,0.76
2023-03-14T01:28:28.595Z,0.77
2023-03-14T01:29:28.621Z,0.75
2023-03-14T01:30:27.641Z,0.76
2023-03-14T01:31:28.873Z,0.75
2023-03-14T01:32:28.683Z,0.75
2023-03-14T01:33:28.675Z,0.75
2023-03-14T01:34:28.682Z,0.73
2023-03-14T01:35:28.703Z,0.74
2023-03-14T01:36:30.492Z,0.75
2023-03-14T01:37:28.797Z,0.74
2023-03-14T01:38:28.704Z,0.72
2023-03-14T01:39:28.697Z,0.72
2023-03-14T01:40:28.670Z,0.73
2023-03-14T01:41:28.676Z,0.72
2023-03-14T01:42:28.667Z,0.72
2023-03-14T01:43:28.711Z,0.72
2023-03-14T01:44:28.652Z,0.72
2023-03-14T01:45:27.680Z,0.72
2023-03-14T01:46:27.652Z,0.73
2023-03-14T01:47:27.637Z,0.73
2023-03-14T01:48:27.610Z,0.74
2023-03-14T01:49:27.618Z,0.73
2023-03-14T01:50:28.596Z,0.72
2023-03-14T01:51:28.599Z,0.71
2023-03-14T01:52:28.700Z,0.71
2023-03-14T01:53:28.575Z,0.72
2023-03-14T01:54:28.587Z,0.71
2023-03-14T01:55:28.570Z,0.74
2023-03-14T01:56:28.555Z,0.72
2023-03-14T01:57:28.575Z,0.72
2023-03-14T01:58:28.556Z,0.70
2023-03-14T01:59:28.540Z,0.72
2023-03-14T02:00:28.576Z,0.72
2023-03-14T02:01:28.545Z,0.72
2023-03-14T02:02:27.571Z,0.72
2023-03-14T02:03:28.577Z,0.70
2023-03-14T02:04:27.505Z,0.70
2023-03-14T02:05:28.510Z,0.71
2023-03-14T02:06:28.501Z,0.70
2023-03-14T02:07:28.505Z,0.70
2023-03-14T02:08:28.528Z,0.72
2023-03-14T02:09:27.475Z,0.70
2023-03-14T02:10:28.476Z,0.72
2023-03-14T02:11:28.467Z,0.70
2023-03-14T02:12:28.456Z,0.69
2023-03-14T02:13:28.458Z,0.70
2023-03-14T02:14:27.436Z,0.70
2023-03-14T02:15:28.440Z,0.71
2023-03-14T02:16:28.422Z,0.69
2023-03-14T02:17:28.418Z,0.70
2023-03-14T02:18:28.410Z,0.70
2023-03-14T02:19:28.393Z,0.71
2023-03-14T02:20:28.389Z,0.72
2023-03-14T02:21:28.389Z,0.73
2023-03-14T02:22:27.374Z,0.71
2023-03-14T02:23:28.378Z,0.72
2023-03-14T02:24:28.377Z,0.72
2023-03-14T02:25:28.352Z,0.71
2023-03-14T02:26:28.361Z,0.68
2023-03-14T02:27:28.340Z,0.72
2023-03-14T02:28:28.338Z,0.71
2023-03-14T02:29:28.320Z,0.70
2023-03-14T02:30:28.331Z,0.70
2023-03-14T02:31:28.376Z,0.70
2023-03-14T02:32:28.323Z,0.67
2023-03-14T02:33:28.316Z,0.69
2023-03-14T02:34:28.295Z,0.70
2023-03-14T02:35:28.366Z,0.69
2023-03-14T02:36:27.352Z,0.70
2023-03-14T02:37:28.365Z,0.69
2023-03-14T02:38:28.388Z,0.69
2023-03-14T02:39:28.394Z,0.69
2023-03-14T02:40:28.482Z,0.68
2023-03-14T02:41:28.696Z,0.69
2023-03-14T02:42:28.475Z,0.68
2023-03-14T02:43:27.488Z,0.67
2023-03-14T02:44:28.525Z,0.66
2023-03-14T02:45:28.552Z,0.68
2023-03-14T02:46:28.592Z,0.67
2023-03-14T02:47:27.607Z,0.68
2023-03-14T02:48:28.618Z,0.69
2023-03-14T02:49:27.643Z,0.67
2023-03-14T02:50:28.674Z,0.68
2023-03-14T02:51:27.733Z,0.69
2023-03-14T02:52:28.727Z,0.70
2023-03-14T02:53:27.769Z,0.70
2023-03-14T02:54:28.798Z,0.68
2023-03-14T02:55:28.846Z,0.69
2023-03-14T02:56:28.877Z,0.69
2023-03-14T02:57:28.884Z,0.67
2023-03-14T02:58:28.894Z,0.68
2023-03-14T02:59:28.906Z,0.67
2023-03-14T03:00:28.940Z,0.67
2023-03-14T03:01:28.987Z,0.69
2023-03-14T03:02:29.001Z,0.69
2023-03-14T03:03:29.069Z,0.70
2023-03-14T03:04:29.030Z,0.67
2023-03-14T03:05:29.031Z,0.66
2023-03-14T03:06:29.074Z,0.65
2023-03-14T03:07:29.086Z,0.65
2023-03-14T03:08:29.098Z,0.64
2023-03-14T03:09:29.120Z,0.66
2023-03-14T03:10:28.135Z,0.64
2023-03-14T03:11:28.182Z,0.64
2023-03-14T03:12:28.267Z,0.65
2023-03-14T03:13:29.191Z,0.66
2023-03-14T03:14:29.250Z,0.67
2023-03-14T03:15:29.436Z,0.72
2023-03-14T03:16:29.393Z,0.74
2023-03-14T03:17:29.314Z,0.73
2023-03-14T03:18:29.333Z,0.76
2023-03-14T03:19:29.376Z,0.82
2023-03-14T03:20:29.393Z,0.88
2023-03-14T03:21:29.409Z,0.87
2023-03-14T03:22:29.502Z,0.90
2023-03-14T03:23:29.462Z,0.93
2023-03-14T03:24:29.481Z,0.95
2023-03-14T03:25:29.522Z,0.99
2023-03-14T03:26:29.537Z,0.97
2023-03-14T03:27:29.574Z,1.02
2023-03-14T03:28:29.633Z,1.01
2023-03-14T03:29:29.580Z,0.98
2023-03-14T03:30:29.688Z,0.95
2023-03-14T03:31:29.626Z,1.02
2023-03-14T03:32:29.666Z,0.97
2023-03-14T03:33:29.643Z,0.98
2023-03-14T03:34:28.650Z,0.97
2023-03-14T03:35:28.651Z,1.01
2023-03-14T03:36:29.671Z,1.02
2023-03-14T03:37:29.668Z,1.04
2023-03-14T03:38:29.681Z,1.05
2023-03-14T03:39:29.670Z,1.12
2023-03-14T03:40:28.668Z,1.09
2023-03-14T03:41:28.685Z,1.07
2023-03-14T03:42:29.669Z,1.12
2023-03-14T03:43:29.676Z,1.14
2023-03-14T03:44:29.718Z,1.15
2023-03-14T03:45:29.694Z,1.10
2023-03-14T03:46:29.817Z,1.09
2023-03-14T03:47:29.728Z,1.16
2023-03-14T03:48:29.710Z,1.14
2023-03-14T03:49:28.711Z,1.08
2023-03-14T03:50:29.705Z,1.12
2023-03-14T03:51:29.707Z,1.12
2023-03-14T03:52:29.696Z,1.18
2023-03-14T03:53:33.585Z,1.11
2023-03-14T03:54:29.693Z,1.11
2023-03-14T03:55:29.740Z,1.12
2023-03-14T03:56:28.806Z,1.04
2023-03-14T03:57:29.846Z,1.08
2023-03-14T03:58:29.909Z,1.12
2023-03-14T03:59:29.924Z,1.13
2023-03-14T04:00:28.936Z,1.16
2023-03-14T04:01:29.925Z,1.13
2023-03-14T04:02:30.001Z,1.07
2023-03-14T04:03:30.012Z,1.00
2023-03-14T04:04:29.920Z,0.97
2023-03-14T04:05:29.915Z,1.03
2023-03-14T04:06:29.987Z,1.04
2023-03-14T04:07:28.898Z,1.01
2023-03-14T04:08:29.910Z,0.96
2023-03-14T04:09:29.901Z,0.97
2023-03-14T04:10:29.939Z,0.97
2023-03-14T04:11:29.904Z,0.96
2023-03-14T04:12:29.897Z,1.00
2023-03-14T04:13:30.059Z,0.96
2023-03-14T04:14:29.911Z,1.01
2023-03-14T04:15:29.915Z,1.09
2023-03-14T04:16:30.101Z,1.02
2023-03-14T04:17:29.984Z,1.00
2023-03-14T04:18:30.033Z,0.98
2023-03-14T04:19:30.011Z,0.97
2023-03-14T04:20:30.019Z,1.05
2023-03-14T04:21:29.013Z,1.06
2023-03-14T04:22:30.021Z,1.11
2023-03-14T04:23:29.029Z,1.14
2023-03-14T04:24:30.008Z,1.14
2023-03-14T04:25:30.055Z,1.12
2023-03-14T04:26:30.030Z,1.16
2023-03-14T04:27:30.055Z,1.06
2023-03-14T04:28:30.045Z,1.05
2023-03-14T04:29:30.041Z,1.11
2023-03-14T04:30:30.070Z,1.05
2023-03-14T04:31:30.177Z,1.06
2023-03-14T04:32:30.171Z,1.10
2023-03-14T04:33:30.097Z,1.13
2023-03-14T04:34:30.118Z,1.06
2023-03-14T04:35:29.115Z,1.12
2023-03-14T04:36:30.150Z,1.08
2023-03-14T04:37:30.182Z,1.04
2023-03-14T04:38:29.147Z,1.04
2023-03-14T04:39:30.163Z,1.02
2023-03-14T04:40:30.192Z,0.98
2023-03-14T04:41:30.188Z,1.02
2023-03-14T04:42:30.240Z,1.04
2023-03-14T04:43:30.234Z,1.06
2023-03-14T04:44:30.260Z,1.10
2023-03-14T04:45:30.275Z,1.13
2023-03-14T04:46:30.363Z,1.12
2023-03-14T04:47:30.304Z,1.14
2023-03-14T04:48:30.339Z,1.15
2023-03-14T04:49:30.309Z,1.15
2023-03-14T04:50:30.298Z,1.09
2023-03-14T04:51:29.322Z,1.08
2023-03-14T04:52:29.336Z,1.06
2023-03-14T04:53:32.845Z,1.01
2023-03-14T04:54:29.339Z,1.04
2023-03-14T04:55:29.332Z,1.07
2023-03-14T04:56:29.340Z,1.08
2023-03-14T04:57:30.318Z,1.04
2023-03-14T04:58:30.321Z,1.04
2023-03-14T04:59:30.307Z,1.07
2023-03-14T05:00:30.290Z,1.14
2023-03-14T05:01:30.364Z,1.07
2023-03-14T05:02:30.374Z,1.14
2023-03-14T05:03:30.279Z,1.12
2023-03-14T05:04:30.342Z,1.15
2023-03-14T05:05:30.246Z,1.12
2023-03-14T05:06:30.243Z,1.13
2023-03-14T05:07:30.244Z,1.11
2023-03-14T05:08:30.265Z,1.13
2023-03-14T05:09:30.221Z,1.16
2023-03-14T05:10:30.226Z,1.15
2023-03-14T05:11:30.220Z,1.14
2023-03-14T05:12:29.203Z,1.15
2023-03-14T05:13:30.228Z,1.12
2023-03-14T05:14:29.196Z,1.14
2023-03-14T05:15:30.194Z,1.12
2023-03-14T05:16:30.194Z,1.08
2023-03-14T05:17:30.157Z,1.11
2023-03-14T05:18:30.168Z,1.13
2023-03-14T05:19:29.140Z,1.10
2023-03-14T05:20:30.220Z,1.12
2023-03-14T05:21:30.142Z,1.08
2023-03-14T05:22:30.144Z,1.09
2023-03-14T05:23:29.135Z,1.06
2023-03-14T05:24:29.105Z,1.09
2023-03-14T05:25:32.524Z,1.08
2023-03-14T05:26:29.101Z,1.08
2023-03-14T05:27:29.095Z,1.07
2023-03-14T05:28:30.096Z,1.04
2023-03-14T05:29:29.082Z,1.05
2023-03-14T05:30:30.078Z,1.07
2023-03-14T05:31:30.139Z,1.06
2023-03-14T05:32:30.119Z,1.05
2023-03-14T05:33:30.085Z,1.08
2023-03-14T05:34:30.035Z,1.11
2023-03-14T05:35:30.037Z,1.13
2023-03-14T05:36:30.056Z,1.12
2023-03-14T05:37:30.032Z,1.11
2023-03-14T05:38:30.026Z,1.07
2023-03-14T05:39:30.036Z,1.07
2023-03-14T05:40:30.002Z,1.09
2023-03-14T05:41:29.005Z,1.07
2023-03-14T05:42:30.001Z,1.01
2023-03-14T05:43:29.006Z,1.03
2023-03-14T05:44:29.986Z,1.06
2023-03-14T05:45:30.059Z,1.04
2023-03-14T05:46:29.984Z,1.02
2023-03-14T05:47:29.973Z,1.05
2023-03-14T05:48:29.949Z,1.05
2023-03-14T05:49:30.008Z,1.07
2023-03-14T05:50:29.937Z,1.03
2023-03-14T05:51:29.930Z,1.01
2023-03-14T05:52:30.082Z,1.03
2023-03-14T05:53:29.915Z,1.03
2023-03-14T05:54:29.918Z,1.00
2023-03-14T05:55:28.906Z,0.98
2023-03-14T05:56:29.898Z,0.98
2023-03-14T05:57:29.894Z,1.06
2023-03-14T05:58:29.889Z,1.06
2023-03-14T05:59:29.909Z,1.06
2023-03-14T06:00:29.894Z,1.08
2023-03-14T06:01:30.795Z,1.06
2023-03-14T06:02:29.945Z,1.09
2023-03-14T06:03:29.905Z,1.09
2023-03-14T06:04:29.858Z,1.07
2023-03-14T06:05:29.849Z,1.04
2023-03-14T06:06:29.888Z,1.01
2023-03-14T06:07:29.830Z,1.06
2023-03-14T06:08:29.866Z,1.10
2023-03-14T06:09:29.819Z,1.02
2023-03-14T06:10:29.807Z,1.07
2023-03-14T06:11:29.791Z,1.08
2023-03-14T06:12:29.802Z,1.05
2023-03-14T06:13:29.786Z,1.11
2023-03-14T06:14:28.782Z,1.10
2023-03-14T06:15:29.786Z,1.12
2023-03-14T06:16:29.820Z,1.12
2023-03-14T06:17:29.745Z,1.09
2023-03-14T06:18:29.797Z,1.09
2023-03-14T06:19:29.723Z,1.08
2023-03-14T06:20:29.711Z,1.05
2023-03-14T06:21:29.721Z,1.01
2023-03-14T06:22:29.724Z,1.06
2023-03-14T06:23:29.788Z,1.04
2023-03-14T06:24:29.737Z,0.98
2023-03-14T06:25:28.698Z,0.91
2023-03-14T06:26:29.704Z,0.90
2023-03-14T06:27:29.682Z,0.91
2023-03-14T06:28:29.677Z,0.94
2023-03-14T06:29:28.689Z,0.87
2023-03-14T06:30:29.798Z,0.82
2023-03-14T06:31:29.819Z,0.83
2023-03-14T06:32:29.863Z,0.83
2023-03-14T06:33:29.867Z,0.89
2023-03-14T06:34:29.944Z,0.90
2023-03-14T06:35:28.989Z,0.87
2023-03-14T06:36:30.026Z,0.83
2023-03-14T06:37:30.049Z,0.81
2023-03-14T06:38:30.088Z,0.81
2023-03-14T06:39:30.150Z,0.82
2023-03-14T06:40:29.192Z,0.84
2023-03-14T06:41:29.235Z,0.86
2023-03-14T06:42:30.256Z,0.80
2023-03-14T06:43:29.303Z,0.83
2023-03-14T06:44:30.350Z,0.78
2023-03-14T06:45:30.408Z,0.78
2023-03-14T06:46:30.572Z,0.81
2023-03-14T06:47:30.519Z,0.84
2023-03-14T06:48:30.584Z,0.90
2023-03-14T06:49:30.654Z,0.82
2023-03-14T06:50:29.714Z,0.77
2023-03-14T06:51:30.750Z,0.79
2023-03-14T06:52:29.833Z,0.78
2023-03-14T06:53:30.851Z,0.79
2023-03-14T06:54:30.895Z,0.81
2023-03-14T06:55:29.973Z,0.85
2023-03-14T06:56:30.981Z,0.82
2023-03-14T06:57:30.989Z,0.80
2023-03-14T06:58:31.011Z,0.84
2023-03-14T06:59:31.047Z,0.86
2023-03-14T07:00:31.178Z,0.87
2023-03-14T07:01:30.187Z,0.98
2023-03-14T07:02:42.331Z,0.95
2023-03-14T07:03:31.073Z,0.95
2023-03-14T07:04:31.114Z,0.95
2023-03-14T07:06:30.068Z,0.99
2023-03-14T07:14:29.992Z,1.15
2023-03-14T07:21:29.941Z,1.44
2023-03-14T07:25:29.916Z,1.48
2023-03-14T07:35:29.841Z,1.73
2023-03-14T07:37:30.803Z,1.83
2023-03-14T07:38:30.802Z,1.94
2023-03-14T07:39:30.791Z,1.89
2023-03-14T07:40:30.799Z,2.01
2023-03-14T07:41:30.800Z,1.92
2023-03-14T07:42:30.838Z,1.97
2023-03-14T07:44:29.969Z,2.13
2023-03-14T07:45:30.987Z,2.18
2023-03-14T07:46:31.101Z,2.19
2023-03-14T07:47:31.064Z,2.18
2023-03-14T07:51:30.230Z,2.40
2023-03-14T07:52:31.261Z,2.41
2023-03-14T07:53:31.304Z,2.43
2023-03-14T07:54:31.323Z,2.54
2023-03-14T07:56:31.369Z,2.59
2023-03-14T07:57:31.413Z,2.61
2023-03-14T07:58:31.454Z,2.58
2023-03-14T07:59:31.518Z,2.62
2023-03-14T08:00:30.608Z,2.61
2023-03-14T08:01:31.643Z,2.56
2023-03-14T08:02:31.701Z,2.65
2023-03-14T08:04:31.802Z,2.52
2023-03-14T08:05:31.864Z,2.49
2023-03-14T08:06:31.906Z,2.45
2023-03-14T08:08:32.049Z,2.35
2023-03-14T08:09:32.108Z,2.36
2023-03-14T08:10:31.170Z,2.34
2023-03-14T08:11:31.222Z,2.38
2023-03-14T08:12:32.273Z,2.32
2023-03-14T08:13:31.307Z,2.31
2023-03-14T08:15:32.369Z,2.32
2023-03-14T08:16:31.535Z,2.25
2023-03-14T08:17:31.426Z,2.26
2023-03-14T08:18:32.485Z,2.28
2023-03-14T08:19:32.504Z,2.25
2023-03-14T08:20:32.526Z,2.29
2023-03-14T08:21:32.574Z,2.24
2023-03-14T08:22:32.611Z,2.23
2023-03-14T08:23:32.357Z,2.26
2023-03-14T08:24:32.660Z,2.20
2023-03-14T08:27:32.761Z,2.11
2023-03-14T08:28:31.817Z,2.21
2023-03-14T08:30:32.838Z,2.16
2023-03-14T08:31:32.935Z,2.14
2023-03-14T08:32:32.935Z,2.14
2023-03-14T08:33:31.830Z,2.13
2023-03-14T08:34:32.861Z,2.14
2023-03-14T08:35:32.842Z,2.08
2023-03-14T08:36:32.881Z,2.06
2023-03-14T08:37:32.836Z,2.03
2023-03-14T08:38:32.862Z,2.04
2023-03-14T08:39:31.816Z,2.02
2023-03-14T08:40:32.816Z,2.01
2023-03-14T08:41:31.818Z,2.00
2023-03-14T08:42:32.835Z,1.98
2023-03-14T08:43:32.818Z,1.98
2023-03-14T08:44:32.918Z,2.00
2023-03-14T08:45:32.818Z,1.97
2023-03-14T08:46:32.827Z,1.93
2023-03-14T08:47:31.815Z,1.96
2023-03-14T08:48:32.840Z,1.87
2023-03-14T08:49:32.893Z,1.90
2023-03-14T08:50:31.898Z,1.92
2023-03-14T08:51:32.848Z,1.81
2023-03-14T08:52:32.963Z,1.79
2023-03-14T08:53:31.867Z,1.74
2023-03-14T08:54:32.872Z,1.77
2023-03-14T08:55:32.889Z,1.78
2023-03-14T08:56:32.911Z,1.76
2023-03-14T08:57:32.878Z,1.78
2023-03-14T08:58:32.872Z,1.82
2023-03-14T08:59:32.890Z,1.78
2023-03-14T09:00:31.897Z,1.77
2023-03-14T09:01:33.050Z,1.78
2023-03-14T09:02:32.956Z,1.73
2023-03-14T09:03:32.921Z,1.73
2023-03-14T09:04:33.100Z,1.71
2023-03-14T09:05:32.966Z,1.68
2023-03-14T09:06:32.984Z,1.64
2023-03-14T09:07:32.996Z,1.65
2023-03-14T09:08:33.041Z,1.65
2023-03-14T09:09:33.034Z,1.66
2023-03-14T09:10:33.056Z,1.64
2023-03-14T09:11:33.092Z,1.69
2023-03-14T09:12:33.105Z,1.65
2023-03-14T09:13:33.156Z,1.67
2023-03-14T09:14:33.162Z,1.64
2023-03-14T09:15:33.190Z,1.61
2023-03-14T09:16:33.296Z,1.63
2023-03-14T09:17:33.241Z,1.62
2023-03-14T09:18:33.332Z,1.60
2023-03-14T09:19:33.315Z,1.56
2023-03-14T09:20:33.349Z,1.55
2023-03-14T09:21:33.340Z,1.58
2023-03-14T09:22:33.342Z,1.52
2023-03-14T09:23:33.391Z,1.54
2023-03-14T09:24:33.414Z,1.50
2023-03-14T09:25:33.435Z,1.53
2023-03-14T09:26:32.448Z,1.53
2023-03-14T09:27:33.464Z,1.49
2023-03-14T09:28:33.486Z,1.46
2023-03-14T09:29:33.509Z,1.45
2023-03-14T09:30:33.598Z,1.49
2023-03-14T09:31:33.593Z,1.48
2023-03-14T09:32:33.658Z,1.45
2023-03-14T09:33:33.614Z,1.44
2023-03-14T09:34:35.842Z,1.42
2023-03-14T09:35:32.664Z,1.42
2023-03-14T09:36:33.709Z,1.40
2023-03-14T09:37:33.638Z,1.38
2023-03-14T09:38:33.609Z,1.40
2023-03-14T09:39:33.618Z,1.42
2023-03-14T09:40:33.620Z,1.39
2023-03-14T09:41:32.617Z,1.39
2023-03-14T09:42:33.605Z,1.32
2023-03-14T09:43:33.609Z,1.29
2023-03-14T09:44:33.576Z,1.23
2023-03-14T09:45:33.552Z,1.10
2023-03-14T09:47:32.547Z,1.26
2023-03-14T09:48:32.576Z,1.31
2023-03-14T09:52:33.538Z,1.44
2023-03-14T09:53:33.495Z,1.43
2023-03-14T09:55:35.525Z,1.57
2023-03-14T09:56:32.921Z,1.57
2023-03-14T09:57:32.450Z,1.59
2023-03-14T09:58:32.461Z,1.59
2023-03-14T09:59:32.454Z,1.59
2023-03-14T10:00:32.445Z,1.62
2023-03-14T10:01:33.553Z,1.65
2023-03-14T10:02:32.415Z,1.71
2023-03-14T10:03:32.419Z,1.76
2023-03-14T10:04:33.452Z,1.83
2023-03-14T10:05:32.419Z,1.87
2023-03-14T10:07:33.389Z,2.21
2023-03-14T10:08:33.425Z,2.13
2023-03-14T10:09:32.387Z,2.17
2023-03-14T10:10:33.383Z,2.23
2023-03-14T10:11:33.356Z,2.23
2023-03-14T10:12:33.447Z,2.17
2023-03-14T10:13:33.359Z,2.18
2023-03-14T10:15:32.363Z,2.14
2023-03-14T10:16:33.405Z,2.15
2023-03-14T10:17:33.328Z,2.21
2023-03-14T10:18:33.337Z,2.22
2023-03-14T10:19:33.303Z,2.25
2023-03-14T10:20:33.329Z,2.35
2023-03-14T10:21:32.298Z,2.42
2023-03-14T10:22:33.278Z,2.37
2023-03-14T10:24:33.293Z,2.44
2023-03-14T10:25:33.257Z,2.50
2023-03-14T10:26:33.265Z,2.47
2023-03-14T10:27:33.242Z,2.58
2023-03-14T10:28:33.297Z,2.65
2023-03-14T10:29:32.241Z,2.56
2023-03-14T10:30:32.372Z,2.73
2023-03-14T10:31:33.228Z,2.76
2023-03-14T10:32:33.256Z,2.73
2023-03-14T10:33:33.233Z,2.81
2023-03-14T10:34:33.199Z,2.91
2023-03-14T10:35:32.277Z,2.95
2023-03-14T10:36:33.244Z,2.82
2023-03-14T10:37:33.186Z,2.91
2023-03-14T10:38:32.180Z,3.09
2023-03-14T10:39:33.184Z,3.31
2023-03-14T10:40:33.284Z,3.24
2023-03-14T10:41:33.158Z,3.11
2023-03-14T10:42:33.170Z,3.18
2023-03-14T10:43:33.218Z,3.26
2023-03-14T10:44:33.142Z,3.24
2023-03-14T10:45:33.151Z,3.19
2023-03-14T10:46:33.177Z,3.36
2023-03-14T10:47:33.127Z,3.38
2023-03-14T10:48:33.123Z,3.34
2023-03-14T10:49:32.090Z,3.33
2023-03-14T10:50:33.109Z,3.17
2023-03-14T10:51:33.429Z,3.20
2023-03-14T10:52:51.288Z,3.20
2023-03-14T10:53:33.088Z,3.20
2023-03-14T10:54:33.072Z,3.10
2023-03-14T10:55:33.060Z,2.90
2023-03-14T10:56:33.081Z,2.78
2023-03-14T10:57:33.051Z,2.89
2023-03-14T10:58:33.437Z,2.91
2023-03-14T10:59:33.024Z,2.83
2023-03-14T11:00:32.016Z,2.78
2023-03-14T11:01:33.065Z,2.73
2023-03-14T11:02:32.016Z,2.74
2023-03-14T11:03:32.995Z,2.75
2023-03-14T11:04:33.136Z,2.75
2023-03-14T11:05:33.041Z,2.77
2023-03-14T11:06:33.032Z,2.79
2023-03-14T11:07:31.985Z,2.85
2023-03-14T11:08:32.989Z,2.85
2023-03-14T11:09:31.950Z,2.79
2023-03-14T11:10:31.947Z,2.79
2023-03-14T11:11:32.956Z,2.75
2023-03-14T11:12:32.966Z,2.80
2023-03-14T11:13:32.927Z,2.77
2023-03-14T11:14:32.920Z,2.77
2023-03-14T11:15:32.956Z,2.72
2023-03-14T11:16:32.963Z,2.69
2023-03-14T11:17:33.028Z,2.73
2023-03-14T11:18:33.084Z,2.74
2023-03-14T11:19:34.480Z,2.70
2023-03-14T11:20:33.145Z,2.70
2023-03-14T11:21:33.124Z,2.68
2023-03-14T11:22:33.132Z,2.65
2023-03-14T11:23:33.115Z,2.65
2023-03-14T11:24:32.112Z,2.61
2023-03-14T11:25:33.112Z,2.55
2023-03-14T11:26:32.107Z,2.60
2023-03-14T11:27:33.094Z,2.57
2023-03-14T11:28:33.097Z,2.60
2023-03-14T11:29:32.070Z,2.54
2023-03-14T11:30:33.071Z,2.53
2023-03-14T11:31:33.166Z,2.52
2023-03-14T11:32:33.083Z,2.52
2023-03-14T11:33:33.044Z,2.52
2023-03-14T11:34:33.039Z,2.55
2023-03-14T11:35:32.677Z,2.55
2023-03-14T11:36:33.030Z,2.55
2023-03-14T11:37:33.025Z,2.53
2023-03-14T11:38:33.019Z,2.49
2023-03-14T11:39:31.992Z,2.46
2023-03-14T11:40:32.993Z,2.42
2023-03-14T11:41:32.990Z,2.38
2023-03-14T11:42:32.984Z,2.37
2023-03-14T11:43:33.010Z,2.38
2023-03-14T11:44:33.093Z,2.37
2023-03-14T11:45:33.928Z,2.24
2023-03-14T11:46:33.505Z,2.32
2023-03-14T11:47:33.187Z,2.23
2023-03-14T11:48:33.266Z,2.21
2023-03-14T11:49:33.303Z,2.22
2023-03-14T11:50:33.355Z,2.16
2023-03-14T11:51:34.103Z,2.16
2023-03-14T11:52:33.429Z,2.17
2023-03-14T11:53:33.468Z,2.11
2023-03-14T11:54:33.082Z,2.09
2023-03-14T11:55:33.555Z,2.11
2023-03-14T11:56:33.625Z,2.05
2023-03-14T11:57:33.910Z,2.02
2023-03-14T12:00:33.811Z,1.90
2023-03-14T12:01:33.805Z,1.89
2023-03-14T12:02:32.797Z,1.88
2023-03-14T12:03:33.993Z,1.84
2023-03-14T12:04:33.841Z,1.86
2023-03-14T12:05:33.888Z,1.83
2023-03-14T12:06:33.927Z,1.79
2023-03-14T12:08:33.994Z,1.76
2023-03-14T12:09:34.019Z,1.71
2023-03-14T12:10:34.056Z,1.74
2023-03-14T12:11:34.106Z,1.76
2023-03-14T12:12:34.106Z,1.73
2023-03-14T12:13:33.148Z,1.71
2023-03-14T12:14:33.175Z,1.69
2023-03-14T12:15:34.211Z,1.66
2023-03-14T12:16:33.466Z,1.66
2023-03-14T12:17:34.303Z,1.61
2023-03-14T12:18:34.337Z,1.59
2023-03-14T12:19:34.364Z,1.60
2023-03-14T12:20:34.399Z,1.56
2023-03-14T12:22:34.456Z,1.51
2023-03-14T12:23:33.461Z,1.51
2023-03-14T12:24:33.534Z,1.46
2023-03-14T12:25:34.497Z,1.47
2023-03-14T12:26:34.506Z,1.43
2023-03-14T12:27:33.550Z,1.44
2023-03-14T12:28:34.671Z,1.44
2023-03-14T12:29:33.587Z,1.41
2023-03-14T12:30:34.614Z,1.41
2023-03-14T12:31:35.004Z,1.39
2023-03-14T12:32:34.768Z,1.43
2023-03-14T12:33:33.682Z,1.40
2023-03-14T12:34:34.683Z,1.38
2023-03-14T12:35:34.748Z,1.38
2023-03-14T12:36:34.750Z,1.36
2023-03-14T12:37:34.944Z,1.36
2023-03-14T12:38:34.782Z,1.33
2023-03-14T12:39:34.811Z,1.33
2023-03-14T12:40:34.853Z,1.29
2023-03-14T12:41:33.861Z,1.28
2023-03-14T12:42:44.530Z,1.26
2023-03-14T12:43:34.997Z,1.26
2023-03-14T12:44:34.880Z,1.26
2023-03-14T12:45:34.914Z,1.27
2023-03-14T12:46:34.910Z,1.27
2023-03-14T12:47:34.917Z,1.27
2023-03-14T12:48:34.827Z,1.24
2023-03-14T12:49:34.829Z,1.25
2023-03-14T12:50:34.873Z,1.22
2023-03-14T12:51:34.795Z,1.20
2023-03-14T12:52:34.806Z,1.19
2023-03-14T12:53:34.792Z,1.20
2023-03-14T12:54:34.779Z,1.17
2023-03-14T12:55:34.796Z,1.14
2023-03-14T12:56:35.439Z,1.17
2023-03-14T12:57:33.770Z,1.17
2023-03-14T12:58:34.757Z,1.16
2023-03-14T12:59:34.749Z,1.14
2023-03-14T13:00:34.744Z,1.11
2023-03-14T13:01:34.841Z,1.09
2023-03-14T13:02:34.748Z,1.09
2023-03-14T13:03:34.765Z,1.11
2023-03-14T13:04:39.812Z,1.12
2023-03-14T13:05:34.707Z,1.12
2023-03-14T13:06:34.695Z,1.12
2023-03-14T13:07:34.698Z,1.10
2023-03-14T13:08:34.672Z,1.06
2023-03-14T13:09:34.817Z,1.07
2023-03-14T13:10:38.542Z,1.06
2023-03-14T13:11:33.680Z,1.06
2023-03-14T13:12:34.719Z,1.06
2023-03-14T13:13:34.637Z,1.07
2023-03-14T13:14:34.641Z,1.02
2023-03-14T13:15:33.646Z,1.03
2023-03-14T13:16:34.757Z,1.02
2023-03-14T13:17:37.133Z,1.00
2023-03-14T13:18:34.634Z,1.00
2023-03-14T13:19:34.633Z,0.99
2023-03-14T13:20:34.641Z,0.97
2023-03-14T13:21:33.600Z,0.97
2023-03-14T13:22:34.585Z,0.97
2023-03-14T13:23:34.595Z,0.98
2023-03-14T13:24:34.574Z,0.98
2023-03-14T13:25:34.930Z,0.98
2023-03-14T13:26:34.573Z,0.97
2023-03-14T13:27:33.549Z,0.96
2023-03-14T13:28:34.553Z,0.97
2023-03-14T13:29:34.560Z,0.96
2023-03-14T13:30:34.572Z,0.96
2023-03-14T13:31:33.523Z,0.95
2023-03-14T13:32:34.633Z,0.94
2023-03-14T13:33:35.520Z,0.96
2023-03-14T13:34:34.573Z,0.95
2023-03-14T13:35:34.525Z,0.96
2023-03-14T13:36:34.486Z,0.95
2023-03-14T13:37:34.481Z,0.96
2023-03-14T13:38:34.477Z,0.93
2023-03-14T13:39:34.544Z,0.95
2023-03-14T13:40:33.496Z,0.95
2023-03-14T13:41:34.560Z,0.95
2023-03-14T13:42:34.624Z,0.95
2023-03-14T13:43:34.677Z,0.96
2023-03-14T13:44:34.736Z,0.95
2023-03-14T13:45:34.785Z,0.95
2023-03-14T13:46:34.874Z,0.95
2023-03-14T13:47:33.910Z,0.95
2023-03-14T13:48:34.955Z,0.96
2023-03-14T13:49:35.033Z,0.94
2023-03-14T13:50:35.073Z,0.97
2023-03-14T13:51:35.198Z,0.96
2023-03-14T13:52:35.186Z,0.96
2023-03-14T13:53:35.250Z,0.95
2023-03-14T13:54:35.307Z,0.96
2023-03-14T13:55:35.362Z,0.95
2023-03-14T13:56:35.432Z,0.94
2023-03-14T13:57:35.489Z,0.96
2023-03-14T13:58:35.547Z,0.96
2023-03-14T13:59:35.622Z,0.96
2023-03-14T14:00:35.718Z,0.95
2023-03-14T14:01:35.754Z,0.97
2023-03-14T14:02:35.700Z,0.97
2023-03-14T14:03:35.759Z,0.96
2023-03-14T14:04:35.831Z,0.97
2023-03-14T14:05:35.786Z,0.97
2023-03-14T14:06:34.828Z,0.96
2023-03-14T14:07:35.974Z,0.97
2023-03-14T14:08:37.922Z,0.97